.
WxDataArchive / Data Records for 2012-09-13
2012-09-12 September 2012 2012-09-14

Data Records for Thursday, 13 September 2012

Time	Temp	Chill	HIndex	Humid	Dewpt	 Wind 	HiWind	WindDir	Rain 	Barom 
-----	----	-----	------	-----	-----	------	------	-------	-----	----- 
00:00	64.3	64.3	64.3	76	56.6	0	0	---	0.00	30.191 
00:05	64.3	64.3	64.3	76	56.6	0	0	---	0.00	30.191 
00:10	64.3	64.3	64.3	76	56.6	0	0	---	0.00	30.191 
00:15	64.3	64.3	64.3	76	56.6	0	0	---	0.00	30.188 
00:20	64.3	64.3	64.3	76	56.6	0	0	---	0.00	30.188 
00:25	64.3	64.3	64.3	76	56.6	0	0	---	0.00	30.188 
00:30	64.3	64.3	64.3	75	56.2	0	0	---	0.00	30.190 
00:35	64.5	64.5	64.5	75	56.4	0	0	---	0.00	30.190 
00:40	64.5	64.5	64.5	75	56.4	0	0	---	0.00	30.190 
00:45	64.7	64.7	64.7	75	56.6	0	0	---	0.00	30.188 
00:50	64.7	64.7	64.7	75	56.6	0	0	---	0.00	30.188 
00:55	64.8	64.8	64.8	74	56.3	0	0	---	0.00	30.188 
01:00	64.8	64.8	64.8	74	56.3	0	0	---	0.00	30.187 
01:05	64.8	64.8	64.8	75	56.7	0	0	---	0.00	30.187 
01:10	64.8	64.8	64.8	75	56.7	0	0	---	0.00	30.187 
01:15	64.8	64.8	64.8	74	56.3	0	0	---	0.00	30.187 
01:20	65.0	65.0	65.0	74	56.5	0	0	---	0.00	30.187 
01:25	65.2	65.2	65.2	74	56.7	0	0	---	0.00	30.187 
01:30	65.5	65.5	65.5	73	56.6	0	0	---	0.00	30.185 
01:35	65.6	65.6	65.6	73	56.7	0	0	---	0.00	30.185 
01:40	65.8	65.8	65.8	73	56.9	0	0	---	0.00	30.185 
01:45	66.0	66.0	66.0	73	57.1	0	0	---	0.00	30.185 
01:50	66.1	66.1	66.1	73	57.2	0	0	---	0.00	30.185 
01:55	66.1	66.1	66.1	73	57.2	0	0	---	0.00	30.185 
02:00	66.1	66.1	66.1	73	57.2	0	0	---	0.00	30.186 
02:05	66.1	66.1	66.1	73	57.2	0	0	---	0.00	30.186 
02:10	66.1	66.1	66.1	73	57.2	0	0	---	0.00	30.186 
02:15	66.3	66.3	66.3	73	57.4	0	1	45	0.00	30.186 
02:20	66.3	66.3	66.3	73	57.4	0	1	45	0.00	30.186 
02:25	66.4	66.4	66.4	72	57.1	0	0	---	0.00	30.186 
02:30	66.6	66.6	66.6	72	57.3	0	0	---	0.00	30.184 
02:35	66.6	66.6	66.6	71	56.9	0	0	---	0.00	30.184 
02:40	66.8	66.8	66.8	71	57.1	0	0	---	0.00	30.184 
02:45	66.6	66.6	66.6	71	56.9	0	0	---	0.00	30.184 
02:50	66.6	66.6	66.6	71	56.9	0	0	---	0.00	30.184 
02:55	66.4	66.4	66.4	72	57.1	0	0	---	0.00	30.184 
03:00	66.4	66.4	66.4	72	57.1	0	0	---	0.00	30.186 
03:05	66.3	66.3	66.3	72	57.0	0	0	---	0.00	30.186 
03:10	66.3	66.3	66.3	72	57.0	0	0	---	0.00	30.186 
03:15	66.3	66.3	66.3	72	57.0	0	0	---	0.00	30.185 
03:20	66.4	66.4	66.4	72	57.1	0	0	---	0.00	30.185 
03:25	66.3	66.3	66.3	73	57.4	0	0	---	0.00	30.185 
03:30	66.3	66.3	66.3	73	57.4	0	0	---	0.00	30.185 
03:35	66.3	66.3	66.3	73	57.4	0	0	---	0.00	30.185 
03:40	66.3	66.3	66.3	73	57.4	0	0	---	0.00	30.185 
03:45	66.3	66.3	66.3	73	57.4	0	0	---	0.00	30.185 
03:50	66.3	66.3	66.3	73	57.4	0	0	---	0.00	30.185 
03:55	66.3	66.3	66.3	73	57.4	0	0	---	0.00	30.185 
04:00	66.3	66.3	66.3	73	57.4	0	0	---	0.00	30.186 
04:05	66.3	66.3	66.3	73	57.4	0	0	---	0.00	30.186 
04:10	66.3	66.3	66.3	74	57.8	0	0	---	0.00	30.186 
04:15	66.3	66.3	66.3	74	57.8	0	0	---	0.00	30.189 
04:20	66.3	66.3	66.3	74	57.8	0	0	---	0.00	30.189 
04:25	66.3	66.3	66.3	74	57.8	0	0	---	0.00	30.189 
04:30	66.3	66.3	66.3	74	57.8	0	0	---	0.00	30.191 
04:35	66.4	66.4	66.4	74	57.9	0	0	---	0.00	30.191 
04:40	66.4	66.4	66.4	74	57.9	0	0	---	0.00	30.191 
04:45	66.4	66.4	66.4	74	57.9	0	0	---	0.00	30.194 
04:50	66.6	66.6	66.6	74	58.0	0	0	---	0.00	30.194 
04:55	66.6	66.6	66.6	74	58.0	0	0	---	0.00	30.194 
05:00	66.6	66.6	66.6	74	58.0	0	0	---	0.00	30.200 
05:05	66.6	66.6	66.6	74	58.0	0	0	---	0.00	30.200 
05:10	66.8	66.8	66.8	74	58.2	0	0	---	0.00	30.200 
05:15	66.8	66.8	66.8	74	58.2	0	0	---	0.00	30.202 
05:20	66.6	66.6	66.6	74	58.0	0	0	---	0.00	30.202 
05:25	66.6	66.6	66.6	74	58.0	0	0	---	0.00	30.202 
05:30	66.8	66.8	66.8	74	58.2	0	0	---	0.00	30.203 
05:35	66.8	66.8	66.8	74	58.2	0	0	---	0.00	30.203 
05:40	66.9	66.9	66.9	74	58.3	0	0	---	0.00	30.203 
05:45	66.9	66.9	66.9	74	58.3	0	0	---	0.00	30.209 
05:50	67.1	67.1	67.1	73	58.1	0	0	---	0.00	30.209 
05:55	67.3	67.3	67.3	73	58.3	0	0	---	0.00	30.209 
06:00	67.3	67.3	67.3	73	58.3	0	0	---	0.00	30.212 
06:05	67.3	67.3	67.3	73	58.3	0	0	---	0.00	30.212 
06:10	67.4	67.4	67.4	73	58.4	0	0	---	0.00	30.212 
06:15	67.6	67.6	67.6	73	58.6	0	1	45	0.00	30.216 
06:20	67.6	67.6	67.6	73	58.6	0	1	45	0.00	30.216 
06:25	67.6	67.6	67.6	73	58.6	0	0	---	0.00	30.216 
06:30	67.6	67.6	67.6	73	58.6	0	0	---	0.00	30.217 
06:35	67.6	67.6	67.6	73	58.6	0	0	---	0.00	30.217 
06:40	67.8	67.8	67.8	73	58.8	0	0	---	0.00	30.217 
06:45	67.8	67.8	67.8	73	58.8	0	0	---	0.00	30.219 
06:50	67.6	67.6	67.6	73	58.6	0	0	---	0.00	30.219 
06:55	67.6	67.6	67.6	73	58.6	0	0	---	0.00	30.219 
07:00	67.6	67.6	67.6	73	58.6	0	0	---	0.00	30.223 
07:05	67.4	67.4	67.4	74	58.8	0	0	---	0.00	30.223 
07:10	67.3	67.3	67.3	74	58.7	0	0	---	0.00	30.223 
07:15	67.3	67.3	67.3	74	58.7	0	0	---	0.00	30.225 
07:20	67.1	67.1	67.1	74	58.5	0	0	---	0.00	30.225 
07:25	67.1	67.1	67.1	75	58.9	0	0	---	0.00	30.225 
07:30	66.9	66.9	66.9	75	58.7	0	0	---	0.00	30.228 
07:35	66.9	66.9	66.9	75	58.7	0	0	---	0.00	30.228 
07:40	66.9	66.9	66.9	76	59.1	0	0	---	0.00	30.228 
07:45	66.8	66.8	66.8	76	59.0	0	0	---	0.00	30.230 
07:50	66.8	66.8	66.8	76	59.0	0	0	---	0.00	30.230 
07:55	66.8	66.8	66.8	76	59.0	0	0	---	0.00	30.230 
08:00	66.8	66.8	66.8	76	59.0	0	0	---	0.00	30.235 
08:05	66.9	66.9	66.9	76	59.1	0	0	---	0.00	30.235 
08:10	66.9	66.9	66.9	77	59.4	0	0	---	0.00	30.235 
08:15	66.9	66.9	66.9	76	59.1	0	0	---	0.00	30.240 
08:20	67.1	67.1	67.1	76	59.3	0	0	---	0.00	30.240 
08:25	67.4	67.4	67.4	75	59.2	0	0	---	0.00	30.240 
08:30	67.6	67.6	67.6	75	59.4	0	0	---	0.00	30.239 
08:35	67.6	67.6	67.6	74	59.0	0	1	45	0.00	30.239 
08:40	67.8	67.8	67.8	74	59.2	0	0	---	0.00	30.239 
08:45	67.9	67.9	67.9	74	59.3	0	1	45	0.00	30.240 
08:50	68.1	68.1	68.1	73	59.1	0	0	---	0.00	30.240 
08:55	68.3	68.3	68.3	73	59.3	0	1	45	0.00	30.240 
09:00	68.4	68.4	68.4	73	59.4	0	0	---	0.00	30.240 
09:05	68.6	68.6	68.6	73	59.6	0	0	---	0.00	30.240 
09:10	68.8	68.8	68.8	73	59.8	0	1	45	0.00	30.240 
09:15	68.9	68.9	68.9	73	59.9	0	0	---	0.00	30.242 
09:20	69.1	69.1	69.1	72	59.7	0	1	45	0.00	30.242 
09:25	69.3	69.3	69.3	71	59.5	0	1	45	0.00	30.242 
09:30	69.4	69.4	69.4	71	59.6	0	0	---	0.00	30.243 
09:35	69.4	69.4	69.4	70	59.2	0	0	---	0.00	30.243 
09:40	69.6	69.6	69.6	70	59.4	0	0	---	0.00	30.243 
09:45	69.8	69.8	69.8	70	59.6	0	0	---	0.00	30.243 
09:50	69.9	69.9	69.9	70	59.7	0	1	45	0.00	30.243 
09:55	70.1	70.1	70.1	68	59.0	0	1	45	0.00	30.243 
10:00	70.3	70.3	70.3	69	59.6	0	0	---	0.00	30.244 
10:05	70.4	70.4	70.4	69	59.7	0	0	---	0.00	30.244 
10:10	70.6	70.6	70.6	67	59.1	0	0	---	0.00	30.244 
10:15	70.8	70.8	70.8	67	59.3	0	0	---	0.00	30.246 
10:20	70.9	70.9	70.9	67	59.4	0	0	---	0.00	30.246 
10:25	71.1	71.1	71.1	67	59.6	0	1	45	0.00	30.246 
10:30	71.3	71.3	71.3	67	59.8	0	1	45	0.00	30.247 
10:35	71.6	71.6	71.6	66	59.6	0	1	45	0.00	30.247 
10:40	72.0	72.0	72.0	66	60.0	0	1	45	0.00	30.247 
10:45	72.1	72.1	72.1	65	59.7	0	2	248	0.00	30.256 
10:50	72.3	72.3	72.3	64	59.4	0	1	248	0.00	30.256 
10:55	72.3	72.3	72.3	64	59.4	0	0	---	0.00	30.256 
11:00	72.7	72.7	72.7	64	59.8	0	0	---	0.00	30.252 
11:05	73.0	73.0	73.0	65	60.5	0	2	248	0.00	30.252 
11:10	73.2	73.2	73.2	63	59.8	0	1	248	0.00	30.252 
11:15	73.3	73.3	73.3	62	59.5	0	2	248	0.00	30.254 
11:20	73.7	73.7	73.7	62	59.9	0	2	248	0.00	30.254 
11:25	74.2	74.2	74.2	63	60.8	0	1	248	0.00	30.254 
11:30	74.6	74.6	74.6	61	60.2	0	1	248	0.00	30.250 
11:35	74.7	74.7	74.7	59	59.4	0	2	248	0.00	30.250 
11:40	75.3	75.3	77.5	61	60.9	0	2	248	0.00	30.250 
11:45	76.1	76.1	78.1	57	59.7	0	2	248	0.00	30.242 
11:50	76.5	76.5	78.4	56	59.6	0	2	248	0.00	30.242 
11:55	76.7	76.7	78.5	55	59.3	1	3	248	0.00	30.242 
12:00	76.5	76.5	78.4	55	59.1	1	5	338	0.00	30.241 
12:05	76.7	76.7	78.5	55	59.3	1	3	270	0.00	30.241 
12:10	77.4	77.4	79.0	55	59.9	1	3	270	0.00	30.241 
12:15	78.1	78.1	79.5	53	59.6	1	4	270	0.00	30.235 
12:20	78.3	78.3	79.7	54	60.3	2	4	292	0.00	30.235 
12:25	78.8	78.8	80.0	53	60.2	1	3	292	0.00	30.235 
12:30	79.4	79.4	80.3	50	59.1	1	5	292	0.00	30.231 
12:35	79.6	79.6	80.5	50	59.3	1	3	270	0.00	30.231 
12:40	79.8	79.8	80.5	49	58.9	2	4	270	0.00	30.231 
12:45	79.8	79.8	80.5	48	58.3	1	4	270	0.00	30.224 
12:50	79.9	79.9	80.4	47	57.8	2	5	315	0.00	30.224 
12:55	79.9	79.9	80.5	48	58.4	2	5	315	0.00	30.224 
13:00	80.3	80.3	80.7	46	57.6	1	4	248	0.00	30.222 
13:05	80.9	80.9	81.2	46	58.2	1	3	248	0.00	30.222 
13:10	81.6	81.6	82.1	48	60.0	0	1	248	0.00	30.222 
13:15	82.4	82.4	82.2	43	57.6	1	2	248	0.00	30.213 
13:20	82.8	82.8	82.2	40	56.0	1	3	202	0.00	30.213 
13:25	82.8	82.8	82.2	40	56.0	1	2	248	0.00	30.213 
13:30	83.0	83.0	82.5	41	56.8	1	2	248	0.00	30.207 
13:35	83.2	83.2	83.0	43	58.3	1	5	112	0.00	30.207 
13:40	83.2	83.2	83.0	43	58.3	1	5	22	0.00	30.207 
13:45	83.0	83.0	82.5	41	56.8	1	6	248	0.00	30.202 
13:50	82.8	82.8	82.2	40	56.0	1	3	248	0.00	30.202 
13:55	83.0	83.0	82.6	42	57.5	1	3	45	0.00	30.202 
14:00	82.4	82.4	81.8	40	55.6	2	5	248	0.00	30.197 
14:05	81.6	81.6	81.2	41	55.6	1	4	248	0.00	30.197 
14:10	81.2	81.2	80.6	38	53.1	1	3	270	0.00	30.197 
14:15	81.2	81.2	80.7	39	53.9	1	3	270	0.00	30.196 
14:20	81.4	81.4	80.8	38	53.3	1	4	270	0.00	30.196 
14:25	81.2	81.2	80.8	40	54.6	1	3	270	0.00	30.196 
14:30	81.6	81.6	81.0	39	54.2	0	2	270	0.00	30.190 
14:35	82.6	82.6	81.8	39	55.1	1	2	270	0.00	30.190 
14:40	82.6	82.6	81.4	35	52.1	1	2	270	0.00	30.190 
14:45	82.4	82.4	81.3	36	52.7	0	2	248	0.00	30.185 
14:50	81.6	81.6	80.6	35	51.3	1	3	248	0.00	30.185 
14:55	81.2	81.2	80.5	37	52.4	1	2	248	0.00	30.185 
15:00	80.5	80.5	80.1	38	52.5	1	3	248	0.00	30.181 
15:05	79.9	79.9	79.8	39	52.7	1	4	248	0.00	30.181 
15:10	79.6	79.6	79.5	38	51.7	0	2	248	0.00	30.181 
15:15	79.4	79.4	79.5	39	52.3	0	3	248	0.00	30.180 
15:20	79.2	79.2	79.3	39	52.1	0	2	248	0.00	30.180 
15:25	79.2	79.2	79.3	39	52.1	0	2	248	0.00	30.180 
15:30	79.2	79.2	79.3	39	52.1	0	2	248	0.00	30.175 
15:35	79.4	79.4	79.5	39	52.3	0	2	248	0.00	30.175 
15:40	79.6	79.6	79.6	39	52.4	1	3	248	0.00	30.175 
15:45	79.8	79.8	79.9	41	54.0	0	1	248	0.00	30.172 
15:50	79.9	79.9	79.9	41	54.1	0	2	248	0.00	30.172 
15:55	80.3	80.3	80.3	42	55.1	0	2	248	0.00	30.172 
16:00	80.3	80.3	80.1	39	53.1	1	3	225	0.00	30.170 
16:05	80.3	80.3	80.0	38	52.4	1	4	45	0.00	30.170 
16:10	80.3	80.3	80.1	39	53.1	1	3	292	0.00	30.170 
16:15	80.3	80.3	80.1	39	53.1	1	2	270	0.00	30.165 
16:20	80.3	80.3	80.1	40	53.8	1	2	270	0.00	30.165 
16:25	80.3	80.3	80.1	39	53.1	1	3	270	0.00	30.165 
16:30	80.3	80.3	80.3	42	55.1	0	2	270	0.00	30.163 
16:35	80.3	80.3	80.2	41	54.4	0	1	270	0.00	30.163 
16:40	80.5	80.5	80.6	44	56.6	0	1	270	0.00	30.163 
16:45	80.9	80.9	80.9	43	56.3	0	2	270	0.00	30.160 
16:50	81.2	81.2	80.7	39	53.9	1	4	270	0.00	30.160 
16:55	81.6	81.6	81.1	40	54.9	1	3	248	0.00	30.160 
17:00	81.8	81.8	81.1	38	53.7	1	4	248	0.00	30.156 
17:05	81.8	81.8	80.9	36	52.2	1	3	270	0.00	30.156 
17:10	81.4	81.4	80.8	38	53.3	1	2	270	0.00	30.156 
17:15	81.2	81.2	80.6	38	53.1	1	4	292	0.00	30.155 
17:20	80.9	80.9	80.6	40	54.3	1	4	248	0.00	30.155 
17:25	80.5	80.5	80.2	39	53.2	1	3	22	0.00	30.155 
17:30	80.3	80.3	80.1	39	53.1	1	4	292	0.00	30.157 
17:35	80.1	80.1	79.8	38	52.2	1	3	248	0.00	30.157 
17:40	79.9	79.9	79.9	40	53.4	0	3	248	0.00	30.157 
17:45	79.9	79.9	80.0	42	54.7	1	4	248	0.00	30.156 
17:50	79.9	79.9	79.9	40	53.4	1	4	270	0.00	30.156 
17:55	80.1	80.1	80.1	41	54.2	0	3	270	0.00	30.156 
18:00	80.1	80.1	80.1	41	54.2	1	4	225	0.00	30.155 
18:05	80.3	80.3	80.3	42	55.1	1	3	248	0.00	30.155 
18:10	80.1	80.1	80.3	43	55.6	1	3	292	0.00	30.155 
18:15	79.9	79.9	80.0	42	54.7	1	3	0	0.00	30.153 
18:20	79.6	79.6	79.8	42	54.5	1	3	315	0.00	30.153 
18:25	79.4	79.4	79.8	43	54.9	1	3	248	0.00	30.153 
18:30	79.2	79.2	79.6	43	54.7	1	3	248	0.00	30.156 
18:35	79.2	79.2	79.6	43	54.7	1	2	248	0.00	30.156 
18:40	79.0	79.0	79.6	44	55.2	1	2	270	0.00	30.156 
18:45	78.8	78.8	79.4	44	55.0	0	2	270	0.00	30.157 
18:50	78.6	78.6	79.4	45	55.5	0	2	270	0.00	30.157 
18:55	78.5	78.5	79.2	44	54.7	0	1	270	0.00	30.157 
19:00	78.5	78.5	79.2	44	54.7	0	3	270	0.00	30.156 
19:05	78.3	78.3	79.1	43	53.9	0	2	248	0.00	30.156 
19:10	78.3	78.3	79.1	43	53.9	0	2	248	0.00	30.156 
19:15	78.1	78.1	78.9	42	53.1	1	3	248	0.00	30.158 
19:20	77.9	77.9	78.8	42	52.9	0	3	248	0.00	30.158 
19:25	77.9	77.9	78.8	42	52.9	0	2	248	0.00	30.158 
19:30	77.7	77.7	78.7	43	53.4	0	1	248	0.00	30.156 
19:35	77.6	77.6	78.7	43	53.3	0	1	248	0.00	30.156 
19:40	77.2	77.2	78.5	44	53.6	0	0	---	0.00	30.156 
19:45	76.8	76.8	78.3	45	53.8	0	0	---	0.00	30.158 
19:50	76.5	76.5	78.2	45	53.6	0	0	---	0.00	30.158 
19:55	76.3	76.3	78.1	46	54.0	0	0	---	0.00	30.158 
20:00	76.0	76.0	78.0	46	53.7	0	0	---	0.00	30.160 
20:05	75.6	75.6	77.9	48	54.5	0	0	---	0.00	30.160 
20:10	75.1	75.1	77.7	49	54.6	0	0	---	0.00	30.160 
20:15	74.7	74.7	74.7	50	54.8	0	1	248	0.00	30.159 
20:20	74.2	74.2	74.2	50	54.3	0	0	---	0.00	30.159 
20:25	73.9	73.9	73.9	51	54.6	0	0	---	0.00	30.159 
20:30	73.5	73.5	73.5	51	54.2	0	0	---	0.00	30.162 
20:35	73.2	73.2	73.2	52	54.5	0	0	---	0.00	30.162 
20:40	72.8	72.8	72.8	53	54.7	0	0	---	0.00	30.162 
20:45	72.5	72.5	72.5	53	54.4	0	0	---	0.00	30.168 
20:50	72.1	72.1	72.1	55	55.0	0	0	---	0.00	30.168 
20:55	71.6	71.6	71.6	56	55.1	0	0	---	0.00	30.168 
21:00	71.1	71.1	71.1	58	55.6	0	0	---	0.00	30.169 
21:05	70.8	70.8	70.8	59	55.7	0	0	---	0.00	30.169 
21:10	70.4	70.4	70.4	59	55.4	0	0	---	0.00	30.169 
21:15	70.1	70.1	70.1	60	55.6	0	0	---	0.00	30.171 
21:20	69.9	69.9	69.9	60	55.4	0	0	---	0.00	30.171 
21:25	69.8	69.8	69.8	60	55.3	0	0	---	0.00	30.171 
21:30	69.6	69.6	69.6	61	55.5	0	0	---	0.00	30.169 
21:35	69.6	69.6	69.6	61	55.5	0	0	---	0.00	30.169 
21:40	69.6	69.6	69.6	62	56.0	0	0	---	0.00	30.169 
21:45	70.3	70.3	70.3	62	56.7	0	2	248	0.00	30.178 
21:50	70.9	70.9	70.9	61	56.8	0	2	248	0.00	30.178 
21:55	71.5	71.5	71.5	61	57.3	0	3	248	0.00	30.178 
22:00	71.6	71.6	71.6	62	57.9	1	3	248	0.00	30.174 
22:05	71.3	71.3	71.3	64	58.5	0	2	248	0.00	30.174 
22:10	70.6	70.6	70.6	66	58.7	1	2	248	0.00	30.174 
22:15	70.1	70.1	70.1	68	59.0	1	4	270	0.00	30.177 
22:20	69.6	69.6	69.6	70	59.4	0	2	270	0.00	30.177 
22:25	69.1	69.1	69.1	71	59.3	0	2	270	0.00	30.177 
22:30	68.8	68.8	68.8	72	59.4	0	3	270	0.00	30.186 
22:35	68.4	68.4	68.4	73	59.4	0	2	270	0.00	30.186 
22:40	68.1	68.1	68.1	74	59.5	0	3	270	0.00	30.186 
22:45	67.9	67.9	67.9	74	59.3	0	2	315	0.00	30.189 
22:50	67.9	67.9	67.9	75	59.7	0	0	---	0.00	30.189 
22:55	67.8	67.8	67.8	75	59.6	0	0	---	0.00	30.189 
23:00	67.8	67.8	67.8	75	59.6	0	1	315	0.00	30.191 
23:05	67.8	67.8	67.8	75	59.6	0	1	315	0.00	30.191 
23:10	67.6	67.6	67.6	76	59.8	0	1	315	0.00	30.191 
23:15	67.6	67.6	67.6	76	59.8	0	2	315	0.00	30.187 
23:20	67.6	67.6	67.6	76	59.8	0	1	315	0.00	30.187 
23:25	67.6	67.6	67.6	76	59.8	0	1	315	0.00	30.187 
23:30	67.6	67.6	67.6	76	59.8	0	0	---	0.00	30.188 
23:35	67.6	67.6	67.6	76	59.8	0	0	---	0.00	30.188 
23:40	67.6	67.6	67.6	76	59.8	0	1	315	0.00	30.188 
23:45	67.6	67.6	67.6	76	59.8	0	0	---	0.00	30.198 
23:50	67.6	67.6	67.6	76	59.8	0	0	---	0.00	30.198 
23:55	67.4	67.4	67.4	76	59.6	0	0	---	0.00	30.198 

CoCoRaHS
IN-AL-39
A2 Web Hosting
Creative Commons License
GoDaddy
search engine by freefind advanced

loaded 2018-11-17 12:28:45 • last modified 2010-11-18 10:43:29
Privacy PolicyDisclaimer
• wx.awcolley.com is powered by PmWiki v.2002016 •
• all content (unless otherwise noted) © 2018 A W Colley